Time;durP1;ratioP1;P1;durP2;ratioP2;P2;SDS_P1;SDS_P2;PMS_P1;PMS_P2;Temp;Humidity;BMP_temperature;BMP_pressure;BME280_temperature;BME280_humidity;BME280_pressure;Samples;Min_cycle;Max_cycle;Signal;HPM_P1;HPM_P2
2020/12/10 00:02:12;;;;;;;68.03;26.87;;;2.70;92.00;;;;;;4849315;29;20271;-91
2020/12/10 00:04:38;;;;;;;69.37;27.73;;;2.70;92.00;;;;;;4849153;29;20556;-92
2020/12/10 00:07:04;;;;;;;73.33;30.80;;;2.70;92.10;;;;;;4849028;29;20029;-92
2020/12/10 00:09:30;;;;;;;72.27;30.30;;;2.70;92.00;;;;;;4848974;29;20036;-91
2020/12/10 00:11:55;;;;;;;75.70;31.90;;;2.60;92.00;;;;;;4849037;29;20045;-92
2020/12/10 00:14:21;;;;;;;69.90;29.03;;;2.60;92.10;;;;;;4849546;29;20484;-91
2020/12/10 00:16:48;;;;;;;76.03;30.70;;;2.70;92.10;;;;;;4849289;29;20029;-92
2020/12/10 00:19:13;;;;;;;72.90;29.27;;;2.60;92.00;;;;;;4849071;29;20036;-91
2020/12/10 00:21:39;;;;;;;69.23;30.57;;;2.60;92.10;;;;;;4848704;29;20388;-91
2020/12/10 00:24:04;;;;;;;72.97;30.73;;;2.60;92.10;;;;;;4849340;29;20128;-92
2020/12/10 00:26:30;;;;;;;71.83;29.37;;;2.60;92.10;;;;;;4849101;29;20037;-91
2020/12/10 00:28:56;;;;;;;74.50;29.90;;;2.60;92.10;;;;;;4849234;29;20066;-92
2020/12/10 00:31:21;;;;;;;65.53;28.70;;;2.70;92.40;;;;;;4848806;29;20121;-92
2020/12/10 00:33:47;;;;;;;73.13;30.50;;;2.60;92.20;;;;;;4848713;29;20396;-91
2020/12/10 00:36:13;;;;;;;70.03;28.17;;;2.60;92.20;;;;;;4849258;29;20040;-92
2020/12/10 00:38:39;;;;;;;61.00;28.13;;;2.70;92.20;;;;;;4848627;29;20049;-90
2020/12/10 00:41:05;;;;;;;69.03;30.83;;;2.70;92.10;;;;;;4848832;29;20097;-90
2020/12/10 00:43:30;;;;;;;62.17;28.83;;;2.60;92.10;;;;;;4848733;29;20040;-90
2020/12/10 00:46:02;;;;;;;65.30;29.07;;;2.70;92.20;;;;;;4848533;29;20026;-91
2020/12/10 00:48:27;;;;;;;63.47;29.00;;;2.60;92.20;;;;;;4848502;29;20094;-91
2020/12/10 00:50:53;;;;;;;63.30;28.50;;;2.60;92.60;;;;;;4848080;29;20037;-91
2020/12/10 00:53:18;;;;;;;65.17;29.17;;;2.60;92.30;;;;;;4848222;29;20033;-92
2020/12/10 00:55:44;;;;;;;62.37;29.10;;;2.60;92.30;;;;;;4848373;29;20036;-92
2020/12/10 00:58:09;;;;;;;56.10;27.40;;;2.60;92.30;;;;;;4848248;29;20041;-91
2020/12/10 01:00:35;;;;;;;59.97;29.57;;;2.70;92.30;;;;;;4848450;29;20066;-91
2020/12/10 01:03:01;;;;;;;64.17;28.33;;;2.60;92.20;;;;;;4848826;29;20037;-91
2020/12/10 01:05:26;;;;;;;60.37;27.80;;;2.60;92.30;;;;;;4848274;29;20473;-92
2020/12/10 01:07:52;;;;;;;62.60;27.17;;;2.60;92.30;;;;;;4848487;29;20086;-92
2020/12/10 01:10:17;;;;;;;63.90;29.33;;;2.60;92.30;;;;;;4861557;29;20036;-92
2020/12/10 01:12:43;;;;;;;60.90;26.60;;;2.70;92.20;;;;;;4849644;29;20045;-91
2020/12/10 01:15:09;;;;;;;63.13;29.17;;;2.70;92.20;;;;;;4848435;29;20117;-92
2020/12/10 01:17:34;;;;;;;59.20;27.10;;;2.70;92.20;;;;;;4847838;29;20513;-92
2020/12/10 01:20:00;;;;;;;60.03;28.47;;;2.70;92.10;;;;;;4848387;29;20395;-91
2020/12/10 01:22:25;;;;;;;62.10;26.73;;;2.70;92.10;;;;;;4848218;29;20029;-92
2020/12/10 01:24:51;;;;;;;56.63;26.87;;;2.80;92.10;;;;;;4847994;29;20029;-91
2020/12/10 01:27:21;;;;;;;60.20;27.20;;;2.70;92.00;;;;;;4847539;29;20188;-91
2020/12/10 01:29:47;;;;;;;58.57;27.40;;;2.80;92.00;;;;;;4847750;29;20395;-93
2020/12/10 01:32:13;;;;;;;56.53;26.37;;;2.80;92.00;;;;;;4847971;29;20121;-92
2020/12/10 01:34:38;;;;;;;60.70;27.07;;;2.80;92.00;;;;;;4847829;29;20025;-91
2020/12/10 01:37:04;;;;;;;59.40;27.07;;;2.80;92.00;;;;;;4847509;29;20164;-92
2020/12/10 01:39:29;;;;;;;61.33;27.53;;;2.80;92.00;;;;;;4847523;29;20092;-92
2020/12/10 01:41:55;;;;;;;56.43;26.23;;;2.80;92.00;;;;;;4847531;29;20062;-91
2020/12/10 01:44:21;;;;;;;58.33;26.77;;;2.80;92.00;;;;;;4847399;29;20038;-91
2020/12/10 01:46:46;;;;;;;58.60;29.03;;;2.70;92.00;;;;;;4847482;29;20511;-92
2020/12/10 01:49:12;;;;;;;59.73;28.47;;;2.80;92.00;;;;;;4847883;29;20026;-92
2020/12/10 01:51:38;;;;;;;56.13;26.17;;;2.80;92.00;;;;;;4847238;29;20056;-92
2020/12/10 01:54:05;;;;;;;55.97;27.13;;;2.70;92.00;;;;;;4847458;29;20089;-91
2020/12/10 01:56:31;;;;;;;57.43;27.60;;;2.70;92.10;;;;;;4847617;29;20396;-91
2020/12/10 01:58:59;;;;;;;61.53;27.27;;;2.70;92.10;;;;;;4847444;29;20033;-92
2020/12/10 02:01:26;;;;;;;61.13;27.93;;;2.70;92.10;;;;;;4848272;29;20089;-92
2020/12/10 02:03:52;;;;;;;59.67;27.17;;;2.70;92.00;;;;;;4848265;29;20070;-92
2020/12/10 02:06:17;;;;;;;57.10;27.93;;;2.70;92.00;;;;;;4847064;29;20531;-92
2020/12/10 02:08:43;;;;;;;58.50;28.03;;;2.70;92.00;;;;;;4846972;29;20391;-92
2020/12/10 02:11:12;;;;;;;52.33;24.97;;;2.80;92.00;;;;;;4847188;29;20036;-91
2020/12/10 02:13:38;;;;;;;55.60;27.35;;;2.80;92.00;;;;;;4847307;29;20029;-91
2020/12/10 02:16:05;;;;;;;53.63;26.30;;;2.70;91.90;;;;;;4846475;29;20032;-92
2020/12/10 02:18:31;;;;;;;56.77;27.30;;;2.80;91.90;;;;;;4846896;29;20579;-91
2020/12/10 02:20:57;;;;;;;58.90;27.47;;;2.80;91.90;;;;;;4847155;29;20038;-92
2020/12/10 02:23:23;;;;;;;62.83;27.53;;;2.70;91.90;;;;;;4847632;29;20113;-91
2020/12/10 02:25:49;;;;;;;59.40;28.07;;;2.70;91.90;;;;;;4847364;29;20029;-92
2020/12/10 02:28:16;;;;;;;57.17;26.17;;;2.70;91.90;;;;;;4846564;29;20061;-92
2020/12/10 02:30:43;;;;;;;59.57;27.67;;;2.70;91.90;;;;;;4847427;29;20026;-92
2020/12/10 02:33:10;;;;;;;58.87;26.77;;;2.70;91.90;;;;;;4846982;29;20030;-91
2020/12/10 02:35:37;;;;;;;58.83;29.23;;;2.60;92.00;;;;;;4846898;29;20040;-91
2020/12/10 02:38:06;;;;;;;60.90;28.47;;;2.60;92.00;;;;;;4847653;29;20037;-91
2020/12/10 02:40:49;;;;;;;63.15;28.15;;;2.60;92.00;;;;;;4846699;29;20049;-91
2020/12/10 02:43:15;;;;;;;58.70;26.47;;;2.60;92.10;;;;;;4847131;29;20408;-92
2020/12/10 02:45:42;;;;;;;59.93;29.50;;;2.60;92.10;;;;;;4847219;29;20038;-92
2020/12/10 02:48:08;;;;;;;58.47;25.47;;;2.60;92.10;;;;;;4846743;29;20465;-92
2020/12/10 02:50:33;;;;;;;59.50;26.27;;;2.60;92.10;;;;;;4848344;29;20484;-92
2020/12/10 02:52:59;;;;;;;56.23;25.83;;;2.60;92.10;;;;;;4846715;29;20032;-92
2020/12/10 02:55:25;;;;;;;59.43;26.50;;;2.60;92.10;;;;;;4846535;29;20022;-91
2020/12/10 02:57:50;;;;;;;61.10;28.03;;;2.60;92.10;;;;;;4845676;29;20045;-91
2020/12/10 03:00:16;;;;;;;60.27;27.03;;;2.60;92.10;;;;;;4846750;29;20040;-91
2020/12/10 03:02:41;;;;;;;54.63;26.87;;;2.60;92.10;;;;;;4846541;29;20419;-91
2020/12/10 03:05:07;;;;;;;57.80;26.47;;;2.60;92.00;;;;;;4847038;29;20046;-91
2020/12/10 03:07:33;;;;;;;56.33;26.97;;;2.60;92.00;;;;;;4846704;29;20030;-91
2020/12/10 03:10:00;;;;;;;60.50;27.90;;;2.60;92.00;;;;;;4846969;29;20041;-92
2020/12/10 03:12:25;;;;;;;55.57;27.80;;;2.60;92.00;;;;;;4846956;29;20030;-91
2020/12/10 03:14:51;;;;;;;62.23;26.73;;;2.60;92.10;;;;;;4847108;29;20121;-92
2020/12/10 03:17:16;;;;;;;59.60;28.07;;;2.60;92.00;;;;;;4846721;29;20033;-92
2020/12/10 03:19:42;;;;;;;56.73;26.97;;;2.60;92.10;;;;;;4846599;29;20033;-91
2020/12/10 03:22:12;;;;;;;59.07;28.10;;;2.60;92.10;;;;;;4846886;29;20045;-92
2020/12/10 03:24:37;;;;;;;59.67;26.30;;;2.50;92.10;;;;;;4846943;29;20055;-91
2020/12/10 03:27:03;;;;;;;63.37;28.10;;;2.50;92.20;;;;;;4847782;29;20449;-91
2020/12/10 03:29:28;;;;;;;59.77;26.53;;;2.60;92.10;;;;;;4850502;29;20025;-91
2020/12/10 03:31:54;;;;;;;59.67;27.73;;;2.60;92.10;;;;;;4850309;29;20025;-92
2020/12/10 03:34:21;;;;;;;63.77;28.87;;;2.60;92.10;;;;;;4855901;29;20053;-92
2020/12/10 03:36:57;;;;;;;55.20;26.27;;;2.60;92.10;;;;;;4865252;29;20049;-92
2020/12/10 03:39:25;;;;;;;61.37;28.93;;;2.60;92.10;;;;;;4867779;29;20049;-92
2020/12/10 03:41:51;;;;;;;58.30;27.97;;;2.60;92.10;;;;;;4868667;29;20025;-91
2020/12/10 03:44:18;;;;;;;61.47;29.03;;;2.60;92.10;;;;;;4868427;29;20037;-92
2020/12/10 03:46:44;;;;;;;59.10;27.53;;;2.60;92.10;;;;;;4868453;29;20041;-91
2020/12/10 03:49:11;;;;;;;62.50;29.03;;;2.60;92.10;;;;;;4868519;29;20036;-91
2020/12/10 03:51:37;;;;;;;65.10;28.67;;;2.60;92.10;;;;;;4868544;29;20030;-91
2020/12/10 03:54:04;;;;;;;57.27;26.93;;;2.60;92.10;;;;;;4868886;29;20089;-91
2020/12/10 03:56:32;;;;;;;58.60;28.67;;;2.60;92.10;;;;;;4854909;29;20044;-92
2020/12/10 03:58:59;;;;;;;61.22;28.10;;;2.60;92.10;;;;;;4849700;29;20037;-92
2020/12/10 04:01:25;;;;;;;58.17;26.37;;;2.60;92.10;;;;;;4849714;29;20041;-92
2020/12/10 04:03:51;;;;;;;67.03;27.30;;;2.60;92.10;;;;;;4849473;29;20033;-91
2020/12/10 04:06:17;;;;;;;63.57;30.67;;;2.60;92.00;;;;;;4849677;29;20516;-91
2020/12/10 04:08:42;;;;;;;62.60;28.43;;;2.60;92.00;;;;;;4849028;29;20046;-91
2020/12/10 04:11:08;;;;;;;66.40;28.20;;;2.60;92.10;;;;;;4849600;29;20029;-91
2020/12/10 04:13:33;;;;;;;69.30;29.80;;;2.60;92.10;;;;;;4850035;29;20070;-92
2020/12/10 04:16:03;;;;;;;75.13;29.87;;;2.60;92.10;;;;;;4849575;29;20396;-91
2020/12/10 04:18:30;;;;;;;69.80;30.13;;;2.60;92.10;;;;;;4849136;29;20057;-91
2020/12/10 04:20:55;;;;;;;67.20;29.70;;;2.60;92.10;;;;;;4848759;29;20040;-92
2020/12/10 04:23:21;;;;;;;66.70;30.57;;;2.60;92.10;;;;;;4849626;29;20034;-92
2020/12/10 04:25:54;;;;;;;82.60;32.80;;;2.60;92.20;;;;;;4849457;29;20033;-92
2020/12/10 04:28:21;;;;;;;77.43;31.07;;;2.60;92.10;;;;;;4848919;29;20067;-92
2020/12/10 04:30:47;;;;;;;74.20;31.27;;;2.60;92.10;;;;;;4849225;29;20097;-92
2020/12/10 04:33:13;;;;;;;68.50;29.47;;;2.60;92.30;;;;;;4848886;29;20029;-92
2020/12/10 04:35:40;;;;;;;74.13;30.57;;;2.60;92.20;;;;;;4848983;29;20041;-91
2020/12/10 04:38:06;;;;;;;70.93;30.40;;;2.60;92.10;;;;;;4849035;29;20057;-90
2020/12/10 04:40:33;;;;;;;69.30;30.43;;;2.60;92.20;;;;;;4849409;29;20049;-91
2020/12/10 04:43:00;;;;;;;69.53;29.10;;;2.50;92.20;;;;;;4849455;29;20037;-91
2020/12/10 04:45:26;;;;;;;64.87;28.53;;;2.60;92.30;;;;;;4850270;29;20037;-91
2020/12/10 04:47:52;;;;;;;68.23;29.37;;;2.60;92.10;;;;;;4848744;29;20136;-89
2020/12/10 04:50:23;;;;;;;64.33;29.67;;;2.60;92.20;;;;;;4849478;29;20476;-90
2020/12/10 04:52:53;;;;;;;63.33;28.23;;;2.60;92.20;;;;;;4849278;29;20029;-91
2020/12/10 04:55:20;;;;;;;68.10;28.03;;;2.60;92.10;;;;;;4848775;29;20060;-89
2020/12/10 04:57:45;;;;;;;63.97;27.53;;;2.60;92.10;;;;;;4848660;29;20033;-91
2020/12/10 05:00:16;;;;;;;66.50;28.87;;;2.60;92.20;;;;;;4849472;29;20030;-91
2020/12/10 05:02:45;;;;;;;67.77;28.57;;;2.60;92.20;;;;;;4849151;29;20108;-91
2020/12/10 05:05:32;;;;;;;68.97;29.83;;;2.60;92.10;;;;;;4848651;29;20045;-92
2020/12/10 05:08:00;;;;;;;70.73;28.90;;;2.60;92.10;;;;;;4848879;29;20121;-91
2020/12/10 05:10:40;;;;;;;76.10;30.00;;;2.60;92.20;;;;;;4848438;29;20049;-92
2020/12/10 05:13:08;;;;;;;69.80;27.50;;;2.60;92.20;;;;;;4848533;29;20058;-91
2020/12/10 05:15:35;;;;;;;71.90;29.57;;;2.60;92.20;;;;;;4848947;29;20484;-92
2020/12/10 05:18:11;;;;;;;69.93;29.37;;;2.60;92.20;;;;;;4848642;29;20054;-92
2020/12/10 05:20:49;;;;;;;73.03;30.30;;;2.60;92.20;;;;;;4849137;29;20436;-92
2020/12/10 05:23:17;;;;;;;83.53;32.93;;;2.60;92.30;;;;;;4848870;29;20040;-89
2020/12/10 05:25:48;;;;;;;79.38;31.40;;;2.60;92.30;;;;;;4849249;29;20120;-92
2020/12/10 05:28:14;;;;;;;74.77;29.07;;;2.70;92.20;;;;;;4848117;29;20037;-90
2020/12/10 05:30:43;;;;;;;78.83;31.87;;;2.60;92.20;;;;;;4848872;29;20026;-90
2020/12/10 05:33:10;;;;;;;75.57;31.67;;;2.60;92.60;;;;;;4851833;29;20029;-89
2020/12/10 05:35:36;;;;;;;73.00;32.10;;;2.70;92.30;;;;;;4854412;29;20066;-89
2020/12/10 05:38:08;;;;;;;85.77;32.27;;;2.60;92.30;;;;;;4850002;29;20400;-90
2020/12/10 05:40:34;;;;;;;81.63;33.73;;;2.60;92.20;;;;;;4849226;29;20132;-90
2020/12/10 05:42:59;;;;;;;74.73;30.00;;;2.60;92.50;;;;;;4848903;29;20071;-90
2020/12/10 05:45:25;;;;;;;78.77;31.37;;;2.60;92.40;;;;;;4849742;29;20030;-90
2020/12/10 05:47:53;;;;;;;71.13;28.67;;;2.60;92.40;;;;;;4848769;29;20037;-91
2020/12/10 05:50:26;;;;;;;73.83;30.00;;;2.70;92.60;;;;;;4849977;29;20477;-90
2020/12/10 05:53:10;;;;;;;74.40;29.93;;;2.70;92.30;;;;;;4850817;29;20084;-90
2020/12/10 05:55:48;;;;;;;70.50;30.00;;;2.70;92.30;;;;;;4857653;29;20048;-84
2020/12/10 05:58:19;;;;;;;71.03;30.73;;;2.70;92.30;;;;;;4857639;29;20527;-84
2020/12/10 06:00:44;;;;;;;71.73;28.97;;;2.70;92.30;;;;;;4854985;29;20029;-84
2020/12/10 06:03:10;;;;;;;78.37;32.43;;;2.70;92.30;;;;;;4855109;29;20407;-87
2020/12/10 06:05:38;;;;;;;70.97;28.43;;;2.70;92.30;;;;;;4851612;29;20037;-87
2020/12/10 06:08:07;;;;;;;72.93;29.43;;;2.70;92.30;;;;;;4868666;29;20064;-87
2020/12/10 06:10:38;;;;;;;71.88;30.08;;;2.70;92.20;;;;;;4836014;29;20049;-86
2020/12/10 06:13:05;;;;;;;70.63;29.80;;;2.70;92.20;;;;;;4831558;29;20591;-87
2020/12/10 06:15:32;;;;;;;78.50;30.47;;;2.70;92.20;;;;;;4831033;29;20034;-84
2020/12/10 06:18:05;;;;;;;70.67;30.43;;;2.70;92.30;;;;;;4829251;29;20041;-87
2020/12/10 06:20:41;;;;;;;70.33;29.93;;;2.70;92.20;;;;;;4828389;29;20038;-87
2020/12/10 06:23:27;;;;;;;72.67;30.77;;;2.70;92.20;;;;;;4813413;29;20034;-87
2020/12/10 06:25:54;;;;;;;71.27;28.80;;;2.70;92.20;;;;;;4813285;29;20412;-88
2020/12/10 06:28:21;;;;;;;63.90;28.43;;;2.70;92.10;;;;;;4829335;29;20053;-86
2020/12/10 06:31:13;;;;;;;68.50;29.20;;;2.70;92.10;;;;;;4830201;29;20026;-86
2020/12/10 06:33:42;;;;;;;67.37;30.27;;;2.70;92.10;;;;;;4834527;29;20040;-87
2020/12/10 06:36:25;;;;;;;66.80;27.50;;;2.70;92.10;;;;;;4826990;29;20022;-86
2020/12/10 06:38:52;;;;;;;63.80;27.70;;;2.80;92.10;;;;;;4819556;29;20081;-84
2020/12/10 06:41:18;;;;;;;71.57;29.17;;;2.70;92.10;;;;;;4863263;29;20025;-86
2020/12/10 06:43:43;;;;;;;66.73;28.50;;;2.70;92.40;;;;;;4847336;29;20025;-86
2020/12/10 06:46:09;;;;;;;66.83;30.13;;;2.70;92.10;;;;;;4847275;29;20029;-86
2020/12/10 06:48:46;;;;;;;65.33;28.43;;;2.70;92.10;;;;;;4846374;29;20034;-87
2020/12/10 06:51:12;;;;;;;63.57;28.53;;;2.70;92.10;;;;;;4846441;29;20026;-87
2020/12/10 06:53:38;;;;;;;70.47;28.97;;;2.70;92.10;;;;;;4848792;29;20026;-86
2020/12/10 06:56:13;;;;;;;72.97;29.37;;;2.70;92.10;;;;;;4848204;29;20640;-88
2020/12/10 06:58:40;;;;;;;68.83;30.90;;;2.70;92.10;;;;;;4847480;29;20124;-87
2020/12/10 07:01:24;;;;;;;65.37;27.43;;;2.70;92.00;;;;;;4841341;29;20393;-85
2020/12/10 07:04:12;;;;;;;69.30;29.67;;;2.70;92.10;;;;;;4864637;29;20044;-89
2020/12/10 07:06:38;;;;;;;67.77;28.20;;;2.70;92.10;;;;;;4849424;29;20504;-87
2020/12/10 07:09:08;;;;;;;71.57;30.47;;;2.70;92.10;;;;;;4865787;29;20033;-87
2020/12/10 07:11:37;;;;;;;73.43;29.13;;;2.70;92.10;;;;;;4849033;29;20054;-88
2020/12/10 07:14:25;;;;;;;61.63;27.67;;;2.70;92.10;;;;;;4849657;29;20514;-88
2020/12/10 07:16:51;;;;;;;65.70;28.30;;;2.70;92.10;;;;;;4851286;29;20045;-87
2020/12/10 07:19:17;;;;;;;68.27;29.67;;;2.70;92.10;;;;;;4850977;29;20034;-87
2020/12/10 07:21:43;;;;;;;70.17;29.47;;;2.70;92.10;;;;;;4870363;29;20046;-87
2020/12/10 07:24:09;;;;;;;63.57;27.03;;;2.70;92.10;;;;;;4850588;29;20034;-89
2020/12/10 07:26:38;;;;;;;72.03;29.10;;;2.70;92.10;;;;;;4857222;29;20070;-88
2020/12/10 07:29:05;;;;;;;;;;;2.70;92.10;;;;;;4871387;29;20033;-90
2020/12/10 07:31:31;;;;;;;64.43;28.27;;;2.70;92.10;;;;;;4854501;29;19931;-89
2020/12/10 07:33:57;;;;;;;61.63;26.23;;;2.70;92.10;;;;;;4851499;29;20029;-91
2020/12/10 07:36:24;;;;;;;68.33;28.00;;;2.70;92.00;;;;;;4856213;29;20030;-93
2020/12/10 07:38:53;;;;;;;64.67;28.13;;;2.70;92.00;;;;;;4851621;29;20524;-92
2020/12/10 07:41:46;;;;;;;67.82;29.65;;;2.70;92.00;;;;;;4849037;29;20033;-90
2020/12/10 07:44:11;;;;;;;66.33;26.50;;;2.70;92.10;;;;;;4851626;29;20053;-90
2020/12/10 07:46:40;;;;;;;62.87;26.07;;;2.70;92.20;;;;;;4850682;29;20038;-92
2020/12/10 07:49:09;;;;;;;71.22;29.83;;;2.70;92.10;;;;;;4836882;29;20030;-93
2020/12/10 07:51:37;;;;;;;69.43;27.80;;;2.70;92.10;;;;;;4852871;29;20551;-91
2020/12/10 07:54:10;;;;;;;62.70;26.53;;;2.70;92.10;;;;;;4847097;29;20044;-94
2020/12/10 07:56:39;;;;;;;66.27;26.00;;;2.70;92.10;;;;;;4837153;29;20041;-93
2020/12/10 07:59:16;;;;;;;61.20;27.95;;;2.70;92.00;;;;;;4845866;29;20029;-84
2020/12/10 08:01:52;;;;;;;59.50;25.63;;;2.70;92.00;;;;;;4850721;29;20044;-87
2020/12/10 08:04:20;;;;;;;65.30;26.77;;;2.80;92.00;;;;;;4850822;29;20030;-84
2020/12/10 08:07:24;;;;;;;65.27;26.23;;;2.80;92.00;;;;;;4871840;29;20030;-92
2020/12/10 08:09:50;;;;;;;57.80;25.17;;;2.80;92.00;;;;;;4872043;29;20137;-91
2020/12/10 08:12:15;;;;;;;61.27;24.70;;;2.80;91.90;;;;;;4863716;29;20034;-93
2020/12/10 08:14:41;;;;;;;63.17;27.93;;;2.80;91.90;;;;;;4866602;29;20049;-93
2020/12/10 08:17:32;;;;;;;;;;;;;;;;;;;;;
2020/12/10 08:19:59;;;;;;;63.20;26.43;;;2.80;91.90;;;;;;4876262;29;20064;-90
2020/12/10 08:22:37;;;;;;;60.40;26.97;;;2.80;91.90;;;;;;4867995;29;20036;-93
2020/12/10 08:25:15;;;;;;;66.87;26.10;;;2.80;91.90;;;;;;4868639;29;20037;-92
2020/12/10 08:27:43;;;;;;;70.63;29.43;;;2.80;91.90;;;;;;4860501;29;20072;-91
2020/12/10 08:30:12;;;;;;;62.88;26.13;;;2.80;91.90;;;;;;4833831;29;20133;-90
2020/12/10 08:32:51;;;;;;;66.35;28.95;;;2.80;91.90;;;;;;4844452;29;20030;-93
2020/12/10 08:35:18;;;;;;;;;;;2.80;91.90;;;;;;4841962;29;20030;-93
2020/12/10 08:37:44;;;;;;;66.43;27.10;;;2.80;91.90;;;;;;4840725;29;19963;-92
2020/12/10 08:40:11;;;;;;;62.93;26.37;;;2.80;91.90;;;;;;4836822;29;20053;-93
2020/12/10 08:42:37;;;;;;;63.20;27.47;;;2.80;91.90;;;;;;4836880;29;20030;-91
2020/12/10 08:45:10;;;;;;;62.80;25.40;;;2.80;91.90;;;;;;4835042;29;20037;-92
2020/12/10 08:47:36;;;;;;;65.03;27.23;;;2.90;91.90;;;;;;4848389;29;20030;-91
2020/12/10 08:50:23;;;;;;;66.57;26.90;;;2.80;91.90;;;;;;4840757;29;20038;-91
2020/12/10 08:53:16;;;;;;;60.67;25.40;;;2.90;91.90;;;;;;4841234;29;20022;-93
2020/12/10 08:55:44;;;;;;;63.07;26.63;;;2.90;91.80;;;;;;4838627;29;20022;-93
2020/12/10 08:58:16;;;;;;;63.97;29.27;;;2.90;91.80;;;;;;4838703;29;20130;-93
2020/12/10 09:00:42;;;;;;;68.97;26.37;;;2.80;91.90;;;;;;4877940;29;20070;-93
2020/12/10 09:03:08;;;;;;;72.87;29.20;;;2.90;91.90;;;;;;4860998;29;20009;-92
2020/12/10 09:05:33;;;;;;;74.47;28.20;;;2.90;91.80;;;;;;4858862;29;20029;-86
2020/12/10 09:07:59;;;;;;;77.40;30.87;;;2.90;91.90;;;;;;4866900;29;20108;-84
2020/12/10 09:10:28;;;;;;;77.70;28.93;;;3.10;92.30;;;;;;4867268;29;20029;-84
2020/12/10 09:12:55;;;;;;;72.90;28.63;;;3.30;92.10;;;;;;4869460;29;20036;-88
2020/12/10 09:15:21;;;;;;;69.57;29.27;;;3.50;91.70;;;;;;4866644;29;20082;-89
2020/12/10 09:17:47;;;;;;;70.53;28.57;;;3.50;91.10;;;;;;4849903;29;20127;-91
2020/12/10 09:20:12;;;;;;;74.60;29.30;;;3.50;91.20;;;;;;4847972;29;20064;-90
2020/12/10 09:22:38;;;;;;;73.80;27.63;;;3.50;91.20;;;;;;4845666;29;20101;-89
2020/12/10 09:25:04;;;;;;;72.77;29.30;;;3.50;91.20;;;;;;4828761;29;20489;-88
2020/12/10 09:27:29;;;;;;;77.33;30.10;;;3.50;91.10;;;;;;4841100;29;20041;-89
2020/12/10 09:29:55;;;;;;;67.80;30.03;;;3.50;91.30;;;;;;4850396;29;20045;-90
2020/12/10 09:32:24;;;;;;;64.00;27.13;;;3.60;91.20;;;;;;4844564;29;20026;-93
2020/12/10 09:34:55;;;;;;;;;;;3.60;91.00;;;;;;4869761;23;20062;-88
2020/12/10 09:37:21;;;;;;;64.40;26.13;;;3.60;91.00;;;;;;4867317;29;20346;-90
2020/12/10 09:39:46;;;;;;;70.80;31.17;;;3.50;91.00;;;;;;4866973;29;20049;-90
2020/12/10 09:42:12;;;;;;;67.37;26.57;;;3.50;91.00;;;;;;4867974;29;20096;-90
2020/12/10 09:44:38;;;;;;;75.90;29.33;;;3.40;91.10;;;;;;4885389;29;20483;-89
2020/12/10 09:47:08;;;;;;;72.10;29.03;;;3.40;91.20;;;;;;4867887;29;20116;-90
2020/12/10 09:49:34;;;;;;;64.17;27.17;;;3.40;91.20;;;;;;4870077;29;20028;-89
2020/12/10 09:52:02;;;;;;;69.93;28.53;;;3.40;91.20;;;;;;4881105;29;20033;-89
2020/12/10 09:59:28;;;;;;;69.83;27.37;;;3.30;91.30;;;;;;4884957;29;20112;-89
2020/12/10 10:01:54;;;;;;;67.00;27.83;;;3.30;91.30;;;;;;4884965;29;20029;-89
2020/12/10 10:04:20;;;;;;;71.93;29.03;;;3.30;91.40;;;;;;4869577;29;20029;-89
2020/12/10 10:06:49;;;;;;;71.57;30.07;;;3.20;91.40;;;;;;4898506;29;20108;-90
2020/12/10 10:09:15;;;;;;;72.28;30.20;;;3.30;91.40;;;;;;4876609;29;20036;-90
2020/12/10 10:11:41;;;;;;;70.60;29.10;;;3.20;91.50;;;;;;4870231;29;20029;-88
2020/12/10 10:14:06;;;;;;;63.17;25.87;;;3.20;91.50;;;;;;4869946;29;20025;-88
2020/12/10 10:16:33;;;;;;;74.53;29.30;;;3.20;91.50;;;;;;4874724;29;20028;-92
2020/12/10 10:18:59;;;;;;;64.90;26.97;;;3.20;91.60;;;;;;4872145;29;20032;-88
2020/12/10 10:21:28;;;;;;;63.53;27.40;;;3.20;91.60;;;;;;4877123;29;20033;-88
2020/12/10 10:23:57;;;;;;;63.90;26.15;;;3.20;91.60;;;;;;4869656;29;20033;-90
2020/12/10 10:26:24;;;;;;;62.83;27.40;;;3.20;91.60;;;;;;4880019;29;20025;-91
2020/12/10 10:28:51;;;;;;;66.47;28.17;;;3.30;91.50;;;;;;4872286;29;20033;-89
2020/12/10 10:31:16;;;;;;;70.43;28.17;;;3.30;91.90;;;;;;4869831;29;20061;-90
2020/12/10 10:33:42;;;;;;;68.03;28.13;;;3.30;91.60;;;;;;4867264;29;20032;-89
2020/12/10 10:36:10;;;;;;;73.27;31.60;;;3.30;91.60;;;;;;4868986;29;20040;-91
2020/12/10 10:38:35;;;;;;;64.87;27.00;;;3.30;91.60;;;;;;4867819;29;20100;-88
2020/12/10 10:41:01;;;;;;;68.93;29.33;;;3.30;91.60;;;;;;4865143;29;20029;-89
2020/12/10 10:43:27;;;;;;;64.23;27.60;;;3.30;91.60;;;;;;4864609;29;20048;-73
2020/12/10 10:45:52;;;;;;;70.87;27.20;;;3.30;91.70;;;;;;4877875;29;20029;-74
2020/12/10 10:48:19;;;;;;;75.73;28.07;;;3.40;91.70;;;;;;4881388;29;20029;-87
2020/12/10 10:50:45;;;;;;;69.33;27.33;;;3.40;91.60;;;;;;4888952;29;20085;-91
2020/12/10 10:53:10;;;;;;;62.33;26.47;;;3.40;91.60;;;;;;4874303;29;20036;-89
2020/12/10 10:55:36;;;;;;;68.87;28.50;;;3.40;91.60;;;;;;4874244;29;20037;-91
2020/12/10 10:58:01;;;;;;;64.53;27.40;;;3.40;91.70;;;;;;4871904;29;20037;-89
2020/12/10 11:00:27;;;;;;;61.23;25.37;;;3.40;91.70;;;;;;4871970;29;20029;-90
2020/12/10 11:02:53;;;;;;;57.13;24.17;;;3.40;91.70;;;;;;4881472;29;20029;-89
2020/12/10 11:05:19;;;;;;;54.73;23.00;;;3.40;91.60;;;;;;4879012;29;20041;-89
2020/12/10 11:07:44;;;;;;;54.80;23.80;;;3.40;91.50;;;;;;4876386;29;20086;-91
2020/12/10 11:10:12;;;;;;;57.70;22.87;;;3.40;91.50;;;;;;4873835;29;20033;-92
2020/12/10 11:12:38;;;;;;;56.53;23.07;;;3.40;91.50;;;;;;4873749;29;20033;-71
2020/12/10 11:15:04;;;;;;;59.33;23.67;;;3.50;91.80;;;;;;4878598;29;20021;-73
2020/12/10 11:17:30;;;;;;;61.30;24.87;;;3.60;91.70;;;;;;4877845;29;20062;-73
2020/12/10 11:44:30;;;;;;;57.53;22.57;;;3.90;90.70;;;;;;4886436;29;20101;-90
2020/12/10 11:46:55;;;;;;;60.03;25.77;;;3.80;90.80;;;;;;4851062;29;20056;-89
2020/12/10 11:49:21;;;;;;;60.90;25.20;;;3.80;90.90;;;;;;4853973;29;20116;-88
2020/12/10 11:51:46;;;;;;;68.93;27.13;;;3.80;91.00;;;;;;4850888;29;20038;-83
2020/12/10 11:54:12;;;;;;;60.43;25.63;;;3.80;91.10;;;;;;4868123;29;20033;-83
2020/12/10 11:56:37;;;;;;;61.23;26.00;;;3.80;91.10;;;;;;4868140;29;20040;-84
2020/12/10 11:59:03;;;;;;;61.67;25.20;;;3.70;91.00;;;;;;4851959;29;20030;-88
2020/12/10 12:01:29;;;;;;;61.30;25.30;;;3.80;91.10;;;;;;4853989;29;20063;-91
2020/12/10 12:03:54;;;;;;;62.97;25.53;;;3.80;91.20;;;;;;4854155;29;20480;-89
2020/12/10 12:06:22;;;;;;;58.27;26.33;;;3.70;91.00;;;;;;4855843;29;20075;-90
2020/12/10 12:08:47;;;;;;;59.80;25.40;;;3.70;91.20;;;;;;4868952;29;20037;-90
2020/12/10 12:11:13;;;;;;;63.87;26.77;;;3.70;91.20;;;;;;4867028;29;20028;-87
2020/12/10 12:13:39;;;;;;;59.80;26.63;;;3.80;91.20;;;;;;4869083;29;20059;-89
2020/12/10 12:16:06;;;;;;;65.20;26.00;;;3.80;91.20;;;;;;4866526;29;20125;-89
2020/12/10 12:18:31;;;;;;;65.53;26.20;;;3.80;91.20;;;;;;4865929;29;20039;-84
2020/12/10 12:20:57;;;;;;;66.57;27.77;;;3.80;91.20;;;;;;4883572;29;20025;-88
2020/12/10 12:23:23;;;;;;;63.10;27.13;;;3.70;91.20;;;;;;4882986;29;20064;-88
2020/12/10 12:25:48;;;;;;;59.77;27.30;;;3.70;91.10;;;;;;4881736;29;20045;-85
2020/12/10 12:28:14;;;;;;;65.67;26.50;;;3.70;91.20;;;;;;4883114;29;20455;-89
2020/12/10 12:30:39;;;;;;;62.47;27.43;;;3.70;91.20;;;;;;4883974;29;20471;-89
2020/12/10 12:33:05;;;;;;;62.90;26.10;;;3.80;91.30;;;;;;4866949;29;20033;-85
2020/12/10 12:35:31;;;;;;;60.53;24.83;;;3.80;91.30;;;;;;4867476;29;20062;-85
2020/12/10 12:37:57;;;;;;;57.80;24.57;;;3.80;91.20;;;;;;4868286;29;20124;-88
2020/12/10 12:40:22;;;;;;;63.70;26.13;;;3.80;91.30;;;;;;4867040;29;20078;-88
2020/12/10 12:42:48;;;;;;;61.87;25.03;;;3.80;91.20;;;;;;4866815;29;20108;-89
2020/12/10 12:45:14;;;;;;;60.27;26.43;;;3.80;91.50;;;;;;4868871;29;20037;-88
2020/12/10 12:47:42;;;;;;;57.13;23.43;;;3.80;91.20;;;;;;4897698;29;20041;-88
2020/12/10 12:50:08;;;;;;;59.88;24.73;;;3.80;91.30;;;;;;4892974;29;20065;-89
2020/12/10 12:52:34;;;;;;;62.73;25.47;;;3.80;91.10;;;;;;4886044;29;20044;-85
2020/12/10 12:55:00;;;;;;;59.97;24.40;;;3.80;91.20;;;;;;4867840;29;20040;-86
2020/12/10 12:57:25;;;;;;;56.20;25.40;;;3.80;91.10;;;;;;4868863;29;20029;-90
2020/12/10 12:59:51;;;;;;;58.13;25.30;;;3.80;91.20;;;;;;4870845;29;20033;-90
2020/12/10 13:02:17;;;;;;;56.07;24.97;;;3.80;91.10;;;;;;4872013;29;20077;-89
2020/12/10 13:04:42;;;;;;;57.90;25.40;;;3.80;91.10;;;;;;4869704;29;20040;-89
2020/12/10 13:07:08;;;;;;;59.30;25.73;;;3.80;91.30;;;;;;4870228;29;20033;-90
2020/12/10 13:09:33;;;;;;;56.80;25.70;;;3.80;91.20;;;;;;4870001;29;20051;-89
2020/12/10 13:11:59;;;;;;;55.20;24.80;;;3.80;91.10;;;;;;4868875;29;20037;-90